Latest Weather Observations for Mount Hotham Airport

IDV60801

Issued at 4:02 pm EST Thursday 30 July 2015 (issued every 30 minutes, with the page automatically refreshed every 10 minutes)

About weather observations | Map of weather stations | Latest weather observations for VIC | Other Formats
Station Details ID: 083055 Name: MOUNT HOTHAM AIRPORT Lat: -37.05 Lon: 147.33 Height: 1295.4 m
Data from the previous 72 hours. | See also: Recent months at Mount Hotham Airport
Date/Time
EST
Temp
°C
App
Temp
°C
Dew
Point
Rel
Hum
%
Delta-T
°C
Wind Press
QNH
hPa
Press
MSL
hPa
Rain
since 9 am
mm
Dir
 
Spd
km/h
Gust
km/h
Spd
kts
Gust
kts
30/04:00pm 2.4 -6.5 -1.9 73 1.7 NNW 35 56 19 30 1015.5 - 0.0
30/03:40pm 3.5 -5.1 -2.2 66 2.2 NNW 33 52 18 28 1015.6 - 0.0
30/03:30pm 3.3 -5.7 -2.8 64 2.3 NNW 35 52 19 28 1015.4 - 0.0
30/03:11pm 4.0 -4.0 -2.4 63 2.5 NNW 30 48 16 26 1015.4 - 0.0
30/03:00pm 4.2 -3.7 -1.6 66 2.3 NNW 30 46 16 25 1016.2 1020.3 0.0
30/02:33pm 3.8 -4.5 -1.4 69 2.1 NNW 32 50 17 27 1016.5 - 0.0
30/02:30pm 3.6 -4.9 -1.9 67 2.1 NNW 33 48 18 26 1016.5 - 0.0
30/02:00pm 3.7 -4.6 -1.4 69 2.0 NNW 32 48 17 26 1017.1 - 0.0
30/01:30pm 4.1 -5.1 -1.5 67 2.2 NW 37 67 20 36 1017.1 - 0.0
30/01:00pm 2.5 -5.5 -2.4 70 1.9 NW 30 52 16 28 1018.0 - 0.0
30/12:58pm 2.5 -5.2 -2.6 69 1.9 NW 28 50 15 27 1018.0 - 0.0
30/12:30pm 2.5 -4.5 -3.4 65 2.2 NNW 24 37 13 20 1018.7 - 0.0
30/12:00pm 3.4 -3.2 -3.0 63 2.4 NW 22 41 12 22 1019.3 1023.5 0.0
30/11:30am 3.8 -1.4 -2.4 64 2.4 NNW 15 22 8 12 1020.1 - 0.0
30/11:00am 2.7 -3.5 -3.2 65 2.2 N 20 30 11 16 1020.7 - 0.0
30/10:30am 2.9 -4.8 -2.6 67 2.1 NNW 28 41 15 22 1020.8 - 0.0
30/10:00am 2.7 -4.2 -2.8 67 2.1 NW 24 33 13 18 1021.0 - 0.0
30/09:30am 2.2 -3.8 -3.3 67 2.0 N 19 28 10 15 1021.0 - 0.0
30/09:00am 2.0 -2.5 -2.9 70 1.8 N 11 15 6 8 1021.0 1025.2 0.0
30/08:30am 0.8 -3.7 -3.3 74 1.5 NNW 11 15 6 8 1021.3 - 0.0
30/08:16am 0.5 -3.6 -3.1 77 1.3 N 9 15 5 8 1021.4 - 0.0
30/08:00am -0.1 -4.6 -3.1 80 1.1 NNW 11 19 6 10 1021.6 - 0.0
30/07:59am -0.2 -4.7 -3.1 81 1.0 NNW 11 19 6 10 1021.6 - 0.0
30/07:30am -1.1 -7.1 -3.4 84 0.8 NNW 19 28 10 15 1021.6 - 0.0
30/07:25am -0.9 -6.9 -3.4 83 0.9 NNW 19 28 10 15 1021.6 - 0.0
30/07:07am -1.3 -6.6 -3.6 84 0.8 NNW 15 26 8 14 1021.8 - 0.0
30/07:00am -1.5 -6.4 -3.7 85 0.7 NNW 13 22 7 12 1021.8 - 0.0
30/06:30am -1.1 -7.2 -3.6 83 0.8 NNW 19 24 10 13 1021.8 - 0.0
30/06:00am -0.8 -6.2 -4.1 78 1.1 NNW 15 24 8 13 1021.6 1025.9 0.0
30/05:30am -0.5 -6.2 -4.0 77 1.2 NNW 17 22 9 12 1021.5 - 0.0
30/05:00am -0.2 -6.8 -3.7 77 1.2 NNW 22 37 12 20 1021.4 - 0.0
30/04:30am -0.3 -6.6 -3.7 78 1.2 NNW 20 32 11 17 1021.8 - 0.0
30/04:00am 0.0 -6.6 -3.4 78 1.2 NNW 22 39 12 21 1021.8 - 0.0
30/03:30am 0.0 -7.0 -3.4 78 1.2 NW 24 35 13 19 1022.3 - 0.0
30/03:00am -0.4 -6.6 -3.4 80 1.1 NW 20 32 11 17 1022.7 1027.0 0.0
30/02:30am 0.0 -6.1 -3.7 76 1.3 NW 19 30 10 16 1023.1 - 0.0
30/02:00am 0.0 -5.6 -2.9 81 1.1 NW 17 33 9 18 1023.5 - 0.0
30/01:30am 0.2 -6.3 -2.7 81 1.1 NW 22 32 12 17 1023.8 - 0.0
30/01:07am 0.4 -5.7 -2.6 80 1.1 NW 20 28 11 15 1023.8 - 0.0
30/01:00am 0.3 -5.8 -2.6 81 1.1 NNW 20 28 11 15 1023.9 - 0.0
30/12:48am 0.2 -6.0 -2.8 80 1.1 NNW 20 32 11 17 1024.0 - 0.0
30/12:30am 0.2 -6.7 -2.7 81 1.1 NW 24 35 13 19 1024.8 - 0.0
30/12:00am -0.1 -5.7 -3.1 80 1.1 NW 17 26 9 14 1025.0 1029.5 0.0
 
Date/Time
EST
Temp
°C
App
Temp
°C
Dew
Point
Rel
Hum
%
Delta-T
°C
Wind Press
QNH
hPa
Press
MSL
hPa
Rain
since 9 am
mm
Dir
 
Spd
km/h
Gust
km/h
Spd
kts
Gust
kts
29/11:30pm -0.2 -4.2 -2.6 84 0.9 NW 9 15 5 8 1025.2 - 0.0
29/11:28pm -0.3 -4.7 -2.8 83 0.9 NW 11 15 6 8 1025.3 - 0.0
29/11:16pm -0.4 -4.9 -3.3 81 1.0 NW 11 15 6 8 1025.5 - 0.0
29/11:00pm 0.1 -4.3 -2.6 82 1.0 NW 11 15 6 8 1025.7 - 0.0
29/10:47pm 0.0 -4.8 -2.4 84 0.9 WNW 13 17 7 9 1025.8 - 0.0
29/10:30pm -1.0 -4.8 -3.4 84 0.8 NNW 7 9 4 5 1025.9 - 0.0
29/10:00pm -0.3 -4.0 -3.0 82 1.0 N 7 9 4 5 1025.9 - 0.0
29/09:30pm 0.7 -3.7 -2.5 79 1.2 N 11 20 6 11 1026.3 - 0.0
29/09:00pm 0.7 -5.2 -2.3 80 1.2 NNW 19 28 10 15 1026.6 1031.1 0.0
29/08:30pm 0.3 -4.0 -1.9 85 0.8 NW 11 20 6 11 1026.7 - 0.0
29/08:18pm -0.4 -4.4 -2.6 85 0.8 NNW 9 15 5 8 1026.6 - 0.0
29/08:00pm -0.7 -3.8 -2.6 87 0.7 N 4 7 2 4 1026.6 - 0.0
29/07:59pm -0.8 -3.9 -2.7 87 0.7 N 4 6 2 3 1026.6 - 0.0
29/07:51pm -1.3 -4.1 -3.2 87 0.6 W 2 4 1 2 1026.7 - 0.0
29/07:40pm -0.6 -4.0 -2.3 88 0.6 WSW 6 13 3 7 1027.1 - 0.0
29/07:30pm -0.9 -3.3 -3.3 84 0.8 CALM 0 2 0 1 1027.1 - 0.0
29/07:00pm -0.2 -3.7 -2.6 84 0.9 NNE 6 9 3 5 1026.7 - 0.0
29/06:30pm 0.8 -3.2 -1.9 82 1.1 N 9 13 5 7 1026.6 - 0.0
29/06:00pm 1.0 -3.3 -1.6 83 1.0 NW 11 15 6 8 1027.1 1031.6 0.0
29/05:30pm 1.0 -3.0 -1.9 81 1.2 NNW 9 17 5 9 1027.3 - 0.0
29/05:00pm 2.3 -2.0 -1.8 74 1.6 NW 11 17 6 9 1027.2 - 0.0
29/04:30pm 3.5 -0.8 -1.8 68 2.1 NNW 11 15 6 8 1027.3 - 0.0
29/04:00pm 4.2 0.3 -1.6 66 2.3 NW 9 13 5 7 1027.4 - 0.0
29/03:30pm 4.4 -0.2 -1.4 66 2.3 WNW 13 15 7 8 1027.8 - 0.0
29/03:00pm 4.8 0.1 -1.8 62 2.6 NW 13 17 7 9 1027.4 1031.9 0.0
29/02:30pm 5.7 1.1 -1.2 61 2.8 NNW 13 20 7 11 1027.8 - 0.0
29/02:00pm 6.6 2.0 -1.1 58 3.2 NNW 13 19 7 10 1028.1 - 0.0
29/01:30pm 7.0 1.3 -0.4 59 3.1 NNW 19 22 10 12 1028.6 - 0.0
29/01:00pm 7.1 1.2 -1.1 56 3.4 NW 20 28 11 15 1028.8 - 0.0
29/12:30pm 7.7 1.9 -1.3 53 3.7 NW 19 30 10 16 1029.4 - 0.0
29/12:00pm 7.7 1.8 -2.3 49 4.0 NW 19 26 10 14 1029.7 1034.3 0.0
29/11:30am 8.0 3.3 -1.5 51 3.9 NNW 13 20 7 11 1030.3 - 0.0
29/11:00am 6.7 2.9 -0.7 59 3.1 N 9 15 5 8 1030.6 - 0.0
29/10:30am 6.1 2.7 -0.8 61 2.8 N 7 11 4 6 1030.9 - 0.0
29/10:00am 4.6 1.3 -0.2 71 2.0 N 7 11 4 6 1030.9 - 0.0
29/09:30am 3.8 0.5 0.0 76 1.6 NNW 7 9 4 5 1031.1 - 0.0
29/09:14am 2.6 -0.7 0.0 83 1.1 NNW 7 9 4 5 1031.1 - 0.0
29/09:00am 1.7 -2.1 -0.4 86 0.8 NNW 9 11 5 6 1031.1 1035.7 0.0
29/08:56am 1.5 -2.7 -0.6 86 0.8 NNW 11 13 6 7 1031.1 - 0.0
29/08:30am 0.8 -3.0 -0.8 89 0.6 NNW 9 11 5 6 1031.1 - 0.0
29/08:00am -0.5 -4.4 -1.2 95 0.2 NNW 9 11 5 6 1031.2 - 0.0
29/07:30am -3.3 -6.9 -4.0 95 0.1 NW 6 7 3 4 1031.1 - 0.0
29/07:12am -3.6 -7.5 -4.4 94 0.1 NNW 7 7 4 4 1030.9 - 0.0
29/07:02am -2.9 -6.7 -3.6 95 0.1 N 7 11 4 6 1030.8 - 0.0
29/07:00am -2.8 -6.5 -3.3 96 0.0 N 7 11 4 6 1030.8 - 0.0
29/06:30am -3.7 -8.0 -4.5 94 0.1 NNW 9 11 5 6 1030.6 - 0.0
29/06:25am -2.7 -7.2 -3.2 96 0.1 NNW 11 15 6 8 1030.5 - 0.0
29/06:08am -2.6 -6.1 -3.0 97 0.0 NNW 6 9 3 5 1030.5 - 0.0
29/06:00am -3.3 -7.1 -3.8 96 0.0 NNW 7 9 4 5 1030.5 1035.1 0.0
29/05:30am -3.7 -7.5 -4.0 98 -0.1 NW 7 7 4 4 1030.3 - 0.0
29/05:00am -3.6 -7.4 -3.9 98 -0.1 NNW 7 9 4 5 1030.4 - 0.0
29/04:30am -3.9 -7.8 -4.3 97 0.0 NNW 7 9 4 5 1030.4 - 0.0
29/04:00am -1.8 -4.8 -1.9 99 -0.1 NNW 4 6 2 3 1030.1 - 0.0
29/03:30am -3.9 -7.6 -4.3 97 0.0 NNW 6 6 3 3 1030.3 - 0.0
29/03:00am -3.6 -7.2 -3.7 99 -0.1 NW 6 7 3 4 1030.6 1035.2 0.0
29/02:30am -4.0 -7.7 -4.1 99 -0.1 NNW 6 6 3 3 1031.1 - 0.0
29/02:00am -3.0 -6.7 -3.1 99 -0.1 NNW 7 7 4 4 1031.3 - 0.0
29/01:30am -3.7 -6.9 -3.8 99 -0.1 NNW 4 6 2 3 1031.4 - 0.0
29/01:00am -3.8 -7.4 -3.9 99 -0.1 NNW 6 7 3 4 1031.4 - 0.0
29/12:30am -2.1 -5.1 -2.2 99 -0.1 WNW 4 4 2 2 1031.6 - 0.0
29/12:00am -3.1 -6.7 -3.4 98 0.0 NNW 6 7 3 4 1031.7 1036.4 0.0
 
Date/Time
EST
Temp
°C
App
Temp
°C
Dew
Point
Rel
Hum
%
Delta-T
°C
Wind Press
QNH
hPa
Press
MSL
hPa
Rain
since 9 am
mm
Dir
 
Spd
km/h
Gust
km/h
Spd
kts
Gust
kts
28/11:30pm -3.1 -6.7 -3.4 98 0.0 NNW 6 7 3 4 1031.7 - 0.0
28/11:00pm -2.8 -6.3 -3.2 97 0.0 NNW 6 7 3 4 1031.7 - 0.0
28/10:30pm -2.3 -5.8 -2.8 96 0.1 NW 6 7 3 4 1031.7 - 0.0
28/10:00pm -1.6 -5.2 -2.3 95 0.2 NW 7 7 4 4 1031.8 - 0.0
28/09:30pm -0.4 -3.7 -1.2 94 0.3 WNW 6 6 3 3 1031.8 - 0.0
28/09:00pm 0.1 -3.3 -0.6 95 0.3 NW 7 9 4 5 1032.0 1036.6 0.0
28/08:30pm 0.2 -2.6 -0.1 98 0.1 WSW 4 6 2 3 1032.2 - 0.0
28/08:00pm 0.0 -2.8 -0.3 98 0.1 W 4 6 2 3 1032.0 - 0.0
28/07:30pm -0.3 -3.5 -0.6 98 0.1 W 6 7 3 4 1032.1 - 0.0
28/07:00pm -0.8 -4.1 -1.4 96 0.2 W 6 9 3 5 1031.6 - 0.0
28/06:30pm -1.3 -4.7 -2.1 94 0.2 WNW 6 7 3 4 1031.5 - 0.0
28/06:00pm -0.6 -4.2 -1.9 91 0.5 W 7 9 4 5 1031.2 1035.8 0.0
28/05:30pm 0.8 -2.7 -1.4 85 0.9 WNW 7 7 4 4 1030.9 - 0.0
28/05:00pm 2.5 -1.0 -1.5 75 1.6 WNW 7 11 4 6 1030.8 - 0.0
28/04:30pm 4.4 -0.2 -1.0 68 2.2 W 13 17 7 9 1030.8 - 0.0
28/04:00pm 4.6 0.4 -0.8 68 2.2 W 11 15 6 8 1030.7 - 0.0
28/03:30pm 4.2 -0.1 -1.6 66 2.3 WSW 11 15 6 8 1030.6 - 0.0
28/03:00pm 5.9 0.9 -1.0 61 2.8 WNW 15 22 8 12 1030.5 1035.1 0.0
28/02:30pm 6.1 1.4 -1.5 58 3.1 SW 13 22 7 12 1030.5 - 0.0
28/02:00pm 5.4 1.1 -1.3 62 2.7 WSW 11 20 6 11 1030.3 - 0.0
28/01:30pm 6.0 1.4 -0.9 61 2.8 WSW 13 32 7 17 1030.7 - 0.0
28/01:00pm 6.8 1.7 0.7 65 2.6 WNW 17 24 9 13 1030.7 - 0.0
28/12:30pm 5.5 1.5 0.5 70 2.1 SSW 11 17 6 9 1031.1 - 0.0
28/12:00pm 4.8 0.9 0.9 76 1.6 WSW 11 20 6 11 1031.6 1036.3 0.0
28/11:30am 4.0 -0.4 0.2 76 1.6 SW 13 20 7 11 1031.8 - 0.0
28/11:00am 4.1 0.6 1.0 80 1.3 SW 9 13 5 7 1032.1 - 0.0
28/10:30am 3.0 -2.2 0.1 81 1.2 SW 17 20 9 11 1032.1 - 0.0
28/10:00am 3.5 -0.4 0.9 83 1.1 SW 11 19 6 10 1032.0 - 0.0
28/09:30am 2.9 -1.1 0.6 85 0.9 SW 11 22 6 12 1031.7 - 0.0
28/09:00am 2.3 -1.3 0.5 88 0.7 WSW 9 15 5 8 1031.4 1036.0 0.0
28/08:30am 1.8 -1.8 0.5 91 0.5 WSW 9 15 5 8 1031.2 - 0.0
28/08:00am 1.6 -1.0 0.7 94 0.4 W 4 6 2 3 1030.8 - 0.0
28/07:30am 1.2 -2.1 0.3 94 0.4 WNW 7 11 4 6 1030.6 - 0.0
28/07:00am 1.2 -1.5 0.2 93 0.4 W 4 7 2 4 1030.3 - 0.0
28/06:30am 1.5 -1.6 0.3 92 0.5 W 6 13 3 7 1029.7 - 0.0
28/06:00am 1.3 -1.5 -0.2 90 0.6 W 4 7 2 4 1029.5 1034.0 0.0
28/05:30am 1.4 -1.8 -0.4 88 0.7 WNW 6 9 3 5 1029.1 - 0.0
28/05:00am 1.2 -2.2 -0.4 89 0.6 WSW 7 15 4 8 1028.9 - 0.0
28/04:30am 0.9 -2.6 -1.0 87 0.7 W 7 17 4 9 1028.3 - 0.0
28/04:00am 0.9 -3.0 -1.3 85 0.8 W 9 19 5 10 1028.2 - 0.0
28/03:30am 0.8 -3.1 -1.4 85 0.9 WSW 9 24 5 13 1028.1 - 0.0
28/03:00am 1.0 -2.9 -1.6 83 1.0 W 9 15 5 8 1028.1 1032.6 0.0
28/02:30am 0.8 -3.5 -1.8 83 1.0 W 11 20 6 11 1028.2 - 0.0
28/02:27am 0.6 -4.1 -1.9 83 1.0 W 13 20 7 11 1028.2 - 0.0
28/02:09am 0.5 -3.5 -2.0 83 1.0 W 9 13 5 7 1028.3 - 0.0
28/02:00am 0.3 -3.7 -2.2 83 1.0 W 9 15 5 8 1028.2 - 0.0
28/01:30am 0.2 -3.5 -2.5 82 1.0 W 7 13 4 7 1027.9 - 0.0
28/01:00am 0.4 -3.0 -2.1 83 1.0 W 6 11 3 6 1027.9 - 0.0
28/12:30am -0.1 -3.8 -2.5 84 0.9 WNW 7 11 4 6 1027.7 - 0.0
28/12:00am -0.3 -5.1 -2.8 83 0.9 W 13 20 7 11 1027.4 1031.9 0.0
 
Date/Time
EST
Temp
°C
App
Temp
°C
Dew
Point
Rel
Hum
%
Delta-T
°C
Wind Press
QNH
hPa
Press
MSL
hPa
Rain
since 9 am
mm
Dir
 
Spd
km/h
Gust
km/h
Spd
kts
Gust
kts
27/11:30pm -0.1 -4.2 -3.0 81 1.1 W 9 17 5 9 1027.7 - 0.0
27/11:00pm 0.0 -4.1 -3.0 80 1.1 W 9 22 5 12 1027.7 - 0.0
27/10:30pm 0.3 -4.2 -3.1 78 1.3 W 11 20 6 11 1027.8 - 0.0
27/10:00pm 0.0 -4.5 -3.5 77 1.3 W 11 22 6 12 1027.5 - 0.0
27/09:30pm -0.2 -4.7 -3.2 80 1.1 W 11 20 6 11 1027.4 - 0.0
27/09:00pm -0.1 -4.6 -3.3 79 1.1 W 11 20 6 11 1027.3 1031.8 0.0
27/08:30pm 0.4 -4.8 -3.0 78 1.3 W 15 30 8 16 1027.3 - 0.0
27/08:00pm 0.7 -4.5 -3.0 76 1.4 WSW 15 26 8 14 1027.0 - 0.0
27/07:30pm 0.5 -5.1 -2.5 80 1.1 W 17 26 9 14 1026.7 - 0.0
27/07:00pm 0.2 -5.3 -2.0 85 0.8 W 17 26 9 14 1026.5 - 0.0
27/06:30pm 0.5 -4.7 -2.9 78 1.3 WSW 15 26 8 14 1026.1 - 0.0
27/06:00pm 0.9 -4.2 -2.1 80 1.2 W 15 32 8 17 1025.9 1030.4 0.0
27/05:30pm 0.3 -4.1 -2.1 84 0.9 W 11 20 6 11 1025.4 - 0.0
27/05:11pm 0.6 -3.3 -1.3 87 0.8 WSW 9 17 5 9 1025.3 - 0.0
27/05:00pm 0.5 -4.1 -1.4 87 0.8 W 13 19 7 10 1025.2 - 0.0
27/04:51pm 0.7 -4.0 -1.8 83 1.0 W 13 26 7 14 1025.0 - 0.0
27/04:30pm 1.3 -3.8 -1.8 80 1.2 W 15 24 8 13 1024.7 - 0.0

Other Formats:

Comma delimited format used in spreadsheet applications
http://www.bom.gov.au/fwo/IDV60801/IDV60801.94905.axf

JavaScript Object Notation format (JSON) in row-major order
http://www.bom.gov.au/fwo/IDV60801/IDV60801.94905.json